Terminal Aerodrome Forecast
Issued by NWS

Home | Current Version | Previous Version | Text Only | Print | Product List | Glossary On
Versions: 1 2 3 4 5 6 7 8 9 10 11 12 13 14 15 16 17 18 19
982
FTUS46 KSGX 231720
TAFCRQ
TAF
KCRQ 231720Z 2318/2418 24009KT P6SM SKC
     FM240200 19005KT P6SM SCT006
     FM240500 17005KT 4SM BR OVC006
     FM240900 15006KT P6SM OVC009
     FM241600 20007KT P6SM SCT015=

USA.gov is the U.S. government's official web portal to all federal, state and local government web resources and services.